createdAt,value
2023-02-02T00:01:47.864Z,17.02
2023-02-02T00:04:18.885Z,17.63
2023-02-02T00:06:47.343Z,16.40
2023-02-02T00:09:20.061Z,14.95
2023-02-02T00:11:50.438Z,12.25
2023-02-02T00:14:19.210Z,16.95
2023-02-02T00:16:52.440Z,12.80
2023-02-02T00:19:22.566Z,15.68
2023-02-02T00:21:50.947Z,11.55
2023-02-02T00:24:21.421Z,11.85
2023-02-02T00:26:51.668Z,15.18
2023-02-02T00:29:22.688Z,11.82
2023-02-02T00:31:52.227Z,14.15
2023-02-02T00:34:21.053Z,16.15
2023-02-02T00:36:50.465Z,16.25
2023-02-02T00:39:21.883Z,14.05
2023-02-02T00:41:52.229Z,15.90
2023-02-02T00:44:37.769Z,11.68
2023-02-02T00:47:06.460Z,16.30
2023-02-02T00:49:35.309Z,18.83
2023-02-02T00:52:04.069Z,13.05
2023-02-02T00:54:33.907Z,17.13
2023-02-02T00:57:29.656Z,14.38
2023-02-02T01:00:06.945Z,17.08
2023-02-02T01:02:36.119Z,21.33
2023-02-02T01:05:15.280Z,15.45
2023-02-02T01:07:58.355Z,15.95
2023-02-02T01:10:28.303Z,15.80
2023-02-02T01:12:56.725Z,14.15
2023-02-02T01:15:25.333Z,15.07
2023-02-02T01:17:53.903Z,12.30
2023-02-02T01:20:23.055Z,11.88
2023-02-02T01:22:53.103Z,15.00
2023-02-02T01:25:21.898Z,12.38
2023-02-02T01:27:51.816Z,12.70
2023-02-02T01:30:20.257Z,13.98
2023-02-02T01:32:48.584Z,10.38
2023-02-02T01:35:17.287Z,12.00
2023-02-02T01:37:45.629Z,10.88
2023-02-02T01:40:14.991Z,10.75
2023-02-02T01:42:43.591Z,13.77
2023-02-02T01:45:23.135Z,14.60
2023-02-02T01:47:55.527Z,12.38
2023-02-02T01:50:30.883Z,12.43
2023-02-02T01:53:01.835Z,16.42
2023-02-02T01:55:32.490Z,18.27
2023-02-02T01:58:04.747Z,12.98
2023-02-02T02:00:34.667Z,13.32
2023-02-02T02:03:08.135Z,16.95
2023-02-02T02:05:42.142Z,23.58
2023-02-02T02:08:16.238Z,16.58
2023-02-02T02:10:44.621Z,18.65
2023-02-02T02:13:13.957Z,22.52
2023-02-02T02:16:20.511Z,18.42
2023-02-02T02:18:59.466Z,15.80
2023-02-02T02:21:56.916Z,14.95
2023-02-02T02:25:27.116Z,14.38
2023-02-02T02:28:22.912Z,15.82
2023-02-02T02:31:34.111Z,9.82
2023-02-02T02:34:11.233Z,14.32
2023-02-02T02:36:49.523Z,9.43
2023-02-02T02:39:22.351Z,9.82
2023-02-02T02:41:55.349Z,9.00
2023-02-02T02:44:25.431Z,6.90
2023-02-02T02:46:54.785Z,7.43
2023-02-02T02:49:24.950Z,13.95
2023-02-02T02:51:54.897Z,11.30
2023-02-02T02:54:34.023Z,7.50
2023-02-02T02:57:40.887Z,7.78
2023-02-02T03:00:24.528Z,9.07
2023-02-02T03:03:00.748Z,7.70
2023-02-02T03:05:43.967Z,13.25
2023-02-02T03:08:16.884Z,17.02
2023-02-02T03:10:47.498Z,8.00
2023-02-02T03:13:17.661Z,13.10
2023-02-02T03:15:47.382Z,13.93
2023-02-02T03:18:21.057Z,13.77
2023-02-02T03:20:51.344Z,14.45
2023-02-02T03:23:19.814Z,13.27
2023-02-02T03:25:48.426Z,13.02
2023-02-02T03:28:17.703Z,15.00
2023-02-02T03:30:48.780Z,19.55
2023-02-02T03:33:18.673Z,11.88
2023-02-02T03:35:47.918Z,12.95
2023-02-02T03:38:17.931Z,12.90
2023-02-02T03:40:46.269Z,11.40
2023-02-02T03:43:14.803Z,16.45
2023-02-02T03:45:43.303Z,19.08
2023-02-02T03:48:11.757Z,18.38
2023-02-02T03:50:41.496Z,27.65
2023-02-02T03:53:10.156Z,15.38
2023-02-02T03:55:40.679Z,18.30
2023-02-02T03:58:13.955Z,15.50
2023-02-02T04:00:42.346Z,19.88
2023-02-02T04:03:12.113Z,22.60
2023-02-02T04:05:40.585Z,16.48
2023-02-02T04:08:14.201Z,18.23
2023-02-02T04:10:45.735Z,19.98
2023-02-02T04:13:14.453Z,16.10
2023-02-02T04:15:42.984Z,23.15
2023-02-02T04:18:17.835Z,18.17
2023-02-02T04:20:46.704Z,23.85
2023-02-02T04:23:15.274Z,15.05
2023-02-02T04:25:52.010Z,15.05
2023-02-02T04:28:21.171Z,25.80
2023-02-02T04:30:55.685Z,23.67
2023-02-02T04:33:25.623Z,21.27
2023-02-02T04:35:55.369Z,22.50
2023-02-02T04:38:23.655Z,23.40
2023-02-02T04:40:53.980Z,28.00
2023-02-02T04:43:22.434Z,14.48
2023-02-02T04:45:56.689Z,16.13
2023-02-02T04:48:25.273Z,11.30
2023-02-02T04:50:59.958Z,19.95
2023-02-02T04:53:32.360Z,19.60
2023-02-02T04:56:09.829Z,11.38
2023-02-02T04:58:40.780Z,20.65
2023-02-02T05:01:13.685Z,18.88
2023-02-02T05:03:42.287Z,23.42
2023-02-02T05:06:11.405Z,21.77
2023-02-02T05:08:43.519Z,21.25
2023-02-02T05:11:21.287Z,14.00
2023-02-02T05:13:53.811Z,18.90
2023-02-02T05:16:28.788Z,16.85
2023-02-02T05:18:59.557Z,17.20
2023-02-02T05:21:30.844Z,28.33
2023-02-02T05:23:59.744Z,20.10
2023-02-02T05:26:29.560Z,25.17
2023-02-02T05:28:58.482Z,11.95
2023-02-02T05:31:27.356Z,25.67
2023-02-02T05:33:55.801Z,22.95
2023-02-02T05:36:24.040Z,16.83
2023-02-02T05:38:54.761Z,17.65
2023-02-02T05:41:23.297Z,21.65
2023-02-02T05:43:53.144Z,20.58
2023-02-02T05:46:21.556Z,19.05
2023-02-02T05:48:49.981Z,23.58
2023-02-02T05:51:21.581Z,20.15
2023-02-02T05:53:50.003Z,14.95
2023-02-02T05:56:18.617Z,20.33
2023-02-02T05:58:49.924Z,33.00
2023-02-02T06:01:21.456Z,11.10
2023-02-02T06:03:50.084Z,14.48
2023-02-02T06:06:18.658Z,14.50
2023-02-02T06:08:47.055Z,18.48
2023-02-02T06:11:17.472Z,11.68
2023-02-02T06:13:47.087Z,15.43
2023-02-02T06:16:15.834Z,10.63
2023-02-02T06:18:46.015Z,23.50
2023-02-02T06:21:14.501Z,23.60
2023-02-02T06:23:45.727Z,28.65
2023-02-02T06:26:14.267Z,21.33
2023-02-02T06:28:42.736Z,24.27
2023-02-02T06:31:12.819Z,20.92
2023-02-02T06:33:41.187Z,18.60
2023-02-02T06:36:11.111Z,16.73
2023-02-02T06:38:41.663Z,23.10
2023-02-02T06:41:10.566Z,19.10
2023-02-02T06:43:38.981Z,12.13
2023-02-02T06:46:07.394Z,20.38
2023-02-02T06:48:35.767Z,17.88
2023-02-02T06:51:11.228Z,11.38
2023-02-02T06:53:40.902Z,14.52
2023-02-02T06:56:18.903Z,13.18
2023-02-02T06:58:47.369Z,11.57
2023-02-02T07:01:16.279Z,11.85
2023-02-02T07:03:44.840Z,8.10
2023-02-02T07:06:17.890Z,10.52
2023-02-02T07:09:01.068Z,20.10
2023-02-02T07:11:34.423Z,9.32
2023-02-02T07:14:06.550Z,16.88
2023-02-02T07:16:35.203Z,14.38
2023-02-02T07:19:05.919Z,13.25
2023-02-02T07:21:36.230Z,16.25
2023-02-02T07:24:16.249Z,8.77
2023-02-02T07:26:44.710Z,11.40
2023-02-02T07:29:17.145Z,10.65
2023-02-02T07:31:46.898Z,9.75
2023-02-02T07:34:15.327Z,12.48
2023-02-02T07:36:45.949Z,22.52
2023-02-02T07:39:18.403Z,16.55
2023-02-02T07:41:49.913Z,16.50
2023-02-02T07:44:31.103Z,18.25
2023-02-02T07:47:02.297Z,22.15
2023-02-02T07:49:30.743Z,15.27
2023-02-02T07:51:59.173Z,11.57
2023-02-02T07:54:29.374Z,16.65
2023-02-02T07:57:00.895Z,19.80
2023-02-02T07:59:32.133Z,13.95
2023-02-02T08:02:00.871Z,24.95
2023-02-02T08:04:33.503Z,22.13
2023-02-02T08:07:01.905Z,21.27
2023-02-02T08:09:33.206Z,22.23
2023-02-02T08:12:02.872Z,20.13
2023-02-02T08:14:32.600Z,19.60
2023-02-02T08:17:01.050Z,18.77
2023-02-02T08:19:29.403Z,15.10
2023-02-02T08:21:58.045Z,14.85
2023-02-02T08:24:27.200Z,15.38
2023-02-02T08:26:57.037Z,14.93
2023-02-02T08:29:25.668Z,19.40
2023-02-02T08:31:54.690Z,19.63
2023-02-02T08:34:23.083Z,22.05
2023-02-02T08:36:51.849Z,11.30
2023-02-02T08:39:20.313Z,13.50
2023-02-02T08:41:49.000Z,12.73
2023-02-02T08:44:18.878Z,9.05
2023-02-02T08:46:48.270Z,8.43
2023-02-02T08:49:17.056Z,10.40
2023-02-02T08:51:46.776Z,11.57
2023-02-02T08:54:15.285Z,11.63
2023-02-02T08:56:43.833Z,10.00
2023-02-02T08:59:12.345Z,15.63
2023-02-02T09:01:42.086Z,12.35
2023-02-02T09:04:17.329Z,13.63
2023-02-02T09:06:46.202Z,13.77
2023-02-02T09:09:17.099Z,13.25
2023-02-02T09:11:45.591Z,14.27
2023-02-02T09:14:15.364Z,13.35
2023-02-02T09:16:45.797Z,12.68
2023-02-02T09:19:14.625Z,15.35
2023-02-02T09:21:43.172Z,17.58
2023-02-02T09:24:13.352Z,15.65
2023-02-02T09:26:44.547Z,20.13
2023-02-02T09:29:16.452Z,17.30
2023-02-02T09:31:47.072Z,18.05
2023-02-02T09:34:16.636Z,16.20
2023-02-02T09:36:46.590Z,12.05
2023-02-02T09:39:16.861Z,10.80
2023-02-02T09:42:55.489Z,11.70
2023-02-02T09:45:29.581Z,12.32
2023-02-02T09:48:09.639Z,10.00
2023-02-02T09:50:47.417Z,10.48
2023-02-02T09:53:30.485Z,15.57
2023-02-02T09:56:01.936Z,8.82
2023-02-02T09:58:34.988Z,10.75
2023-02-02T10:01:07.459Z,6.38
2023-02-02T10:03:45.667Z,7.88
2023-02-02T10:06:27.913Z,8.10
2023-02-02T10:09:02.960Z,18.25
2023-02-02T10:11:37.456Z,10.95
2023-02-02T10:14:14.404Z,7.78
2023-02-02T10:16:43.254Z,6.75
2023-02-02T10:19:15.927Z,10.00
2023-02-02T10:21:52.975Z,10.98
2023-02-02T10:24:24.032Z,9.40
2023-02-02T10:26:55.312Z,14.73
2023-02-02T10:29:48.538Z,9.50
2023-02-02T10:32:23.726Z,9.02
2023-02-02T10:35:13.962Z,9.95
2023-02-02T10:37:51.459Z,11.30
2023-02-02T10:40:34.649Z,9.80
2023-02-02T10:43:44.292Z,8.02
2023-02-02T10:46:18.676Z,10.43
2023-02-02T10:48:49.234Z,9.55
2023-02-02T10:51:25.404Z,8.68
2023-02-02T10:54:01.229Z,12.75
2023-02-02T10:56:35.447Z,12.35
2023-02-02T10:59:07.402Z,12.38
2023-02-02T11:01:36.169Z,9.40
2023-02-02T11:04:21.986Z,12.00
2023-02-02T11:07:01.531Z,12.43
2023-02-02T11:09:38.525Z,11.98
2023-02-02T11:12:15.241Z,11.27
2023-02-02T11:14:48.480Z,12.10
2023-02-02T11:17:22.029Z,13.30
2023-02-02T11:19:51.414Z,15.88
2023-02-02T11:22:34.009Z,15.82
2023-02-02T11:25:06.243Z,13.63
2023-02-02T11:27:41.112Z,16.42
2023-02-02T11:30:24.205Z,17.73
2023-02-02T11:32:52.814Z,17.10
2023-02-02T11:35:23.495Z,18.40
2023-02-02T11:38:17.648Z,14.38
2023-02-02T11:40:47.603Z,19.05
2023-02-02T11:43:20.356Z,17.45
2023-02-02T11:45:55.995Z,22.50
2023-02-02T11:48:29.447Z,26.52
2023-02-02T11:50:59.785Z,18.63
2023-02-02T11:53:41.868Z,23.63
2023-02-02T11:56:20.013Z,20.60
2023-02-02T11:58:51.122Z,20.27
2023-02-02T12:01:26.958Z,19.42
2023-02-02T12:03:56.914Z,20.60
2023-02-02T12:06:27.003Z,21.80
2023-02-02T12:09:01.455Z,22.20
2023-02-02T12:11:42.053Z,22.17
2023-02-02T12:14:26.592Z,24.10
2023-02-02T12:17:05.352Z,18.73
2023-02-02T12:19:58.578Z,18.77
2023-02-02T12:22:46.431Z,21.70
2023-02-02T12:25:37.492Z,19.65
2023-02-02T12:28:13.743Z,25.77
2023-02-02T12:30:49.036Z,22.05
2023-02-02T12:33:26.945Z,21.85
2023-02-02T12:36:10.718Z,16.75
2023-02-02T12:39:06.306Z,16.35
2023-02-02T12:41:50.733Z,13.93
2023-02-02T12:44:27.881Z,14.55
2023-02-02T12:47:08.376Z,12.65
2023-02-02T12:49:52.712Z,11.43
2023-02-02T12:52:39.188Z,11.30
2023-02-02T12:55:23.383Z,10.48
2023-02-02T12:58:18.867Z,11.77
2023-02-02T13:01:07.063Z,11.45
2023-02-02T13:03:55.560Z,17.42
2023-02-02T13:06:55.030Z,11.80
2023-02-02T13:09:29.775Z,15.85
2023-02-02T13:12:04.108Z,14.20
2023-02-02T13:14:38.594Z,10.48
2023-02-02T13:17:11.036Z,9.90
2023-02-02T13:19:43.226Z,9.50
2023-02-02T13:22:17.849Z,14.25
2023-02-02T13:24:52.322Z,10.43
2023-02-02T13:27:23.166Z,9.65
2023-02-02T13:29:56.974Z,10.75
2023-02-02T13:32:31.705Z,13.93
2023-02-02T13:35:04.906Z,10.70
2023-02-02T13:37:41.099Z,11.82
2023-02-02T13:40:25.338Z,9.18
2023-02-02T13:43:00.607Z,9.68
2023-02-02T13:45:46.867Z,9.82
2023-02-02T13:48:31.183Z,9.30
2023-02-02T13:51:36.836Z,10.57
2023-02-02T13:54:45.557Z,11.02
2023-02-02T13:57:27.443Z,8.60
2023-02-02T14:00:04.620Z,14.02
2023-02-02T14:02:45.885Z,12.73
2023-02-02T14:05:24.344Z,11.07
2023-02-02T14:08:00.484Z,11.00
2023-02-02T14:10:35.145Z,11.68
2023-02-02T14:13:32.949Z,11.63
2023-02-02T14:16:05.543Z,11.30
2023-02-02T14:18:55.388Z,11.85
2023-02-02T14:24:54.107Z,14.77
2023-02-02T14:31:27.921Z,8.73
2023-02-02T14:34:36.890Z,8.27
2023-02-02T14:37:44.650Z,8.63
2023-02-02T14:40:44.887Z,10.75
2023-02-02T14:43:46.316Z,10.00
2023-02-02T14:46:38.038Z,9.13
2023-02-02T14:49:27.464Z,10.40
2023-02-02T14:52:09.890Z,9.35
2023-02-02T14:55:15.611Z,10.32
2023-02-02T15:00:56.314Z,11.50
2023-02-02T15:03:36.724Z,11.23
2023-02-02T15:06:34.692Z,14.00
2023-02-02T15:09:43.218Z,13.93
2023-02-02T15:12:24.103Z,12.10
2023-02-02T15:15:02.507Z,12.35
2023-02-02T15:17:41.319Z,6.40
2023-02-02T15:20:21.728Z,3.78
2023-02-02T15:22:56.822Z,7.40
2023-02-02T15:25:31.125Z,6.53
2023-02-02T15:28:09.074Z,6.70
2023-02-02T15:30:46.187Z,7.00
2023-02-02T15:33:28.367Z,6.82
2023-02-02T15:36:02.350Z,10.07
2023-02-02T15:38:35.245Z,11.05
2023-02-02T15:41:13.190Z,7.22
2023-02-02T15:43:44.234Z,9.88
2023-02-02T15:46:15.994Z,9.15
2023-02-02T15:48:44.601Z,8.57
2023-02-02T15:51:21.936Z,6.30
2023-02-02T15:53:52.914Z,6.80
2023-02-02T15:56:30.028Z,6.07
2023-02-02T15:59:01.899Z,8.07
2023-02-02T16:01:34.487Z,8.25
2023-02-02T16:04:16.400Z,7.57
2023-02-02T16:06:52.921Z,8.90
2023-02-02T16:09:29.702Z,11.93
2023-02-02T16:12:01.952Z,6.72
2023-02-02T16:14:34.340Z,8.13
2023-02-02T16:17:19.165Z,8.80
2023-02-02T16:19:52.469Z,6.78
2023-02-02T16:22:25.559Z,5.55
2023-02-02T16:24:59.332Z,8.35
2023-02-02T16:27:32.946Z,7.40
2023-02-02T16:30:22.162Z,9.63
2023-02-02T16:32:50.600Z,9.35
2023-02-02T16:35:32.981Z,7.43
2023-02-02T16:38:15.563Z,8.57
2023-02-02T16:40:49.974Z,7.85
2023-02-02T16:43:20.471Z,10.57
2023-02-02T16:46:11.799Z,8.25
2023-02-02T16:48:48.423Z,9.10
2023-02-02T16:51:28.526Z,9.43
2023-02-02T16:54:08.581Z,9.05
2023-02-02T16:56:46.621Z,13.20
2023-02-02T16:59:34.805Z,11.93
2023-02-02T17:02:27.915Z,11.57
2023-02-02T17:05:06.154Z,10.73
2023-02-02T17:07:37.266Z,8.80
2023-02-02T17:10:21.641Z,12.45
2023-02-02T17:12:54.658Z,10.52
2023-02-02T17:15:34.618Z,10.18
2023-02-02T17:18:23.400Z,9.88
2023-02-02T17:21:10.269Z,8.15
2023-02-02T17:23:43.189Z,7.63
2023-02-02T17:26:23.253Z,9.82
2023-02-02T17:29:05.603Z,11.95
2023-02-02T17:31:51.625Z,12.38
2023-02-02T17:35:17.838Z,16.27
2023-02-02T17:38:12.199Z,12.93
2023-02-02T17:41:08.765Z,15.50
2023-02-02T17:43:43.372Z,16.73
2023-02-02T17:46:19.712Z,19.55
2023-02-02T17:49:18.904Z,19.25
2023-02-02T17:52:00.964Z,12.88
2023-02-02T17:54:42.614Z,18.13
2023-02-02T17:57:15.612Z,14.43
2023-02-02T17:59:48.745Z,17.25
2023-02-02T18:03:15.953Z,18.85
2023-02-02T18:06:14.194Z,26.60
2023-02-02T18:08:49.073Z,13.45
2023-02-02T18:15:03.090Z,16.52
2023-02-02T18:17:43.392Z,15.88
2023-02-02T18:20:29.099Z,11.10
2023-02-02T18:23:21.353Z,14.75
2023-02-02T18:27:16.560Z,15.43
2023-02-02T18:30:22.053Z,15.07
2023-02-02T18:32:59.702Z,14.95
2023-02-02T18:35:28.622Z,12.85
2023-02-02T18:37:59.670Z,12.85
2023-02-02T18:40:28.169Z,13.35
2023-02-02T18:43:18.690Z,14.38
2023-02-02T18:46:04.718Z,10.23
2023-02-02T18:48:45.468Z,13.55
2023-02-02T18:51:16.821Z,13.82
2023-02-02T18:53:45.996Z,13.50
2023-02-02T18:56:21.056Z,13.57
2023-02-02T18:58:49.617Z,12.35
2023-02-02T19:01:23.427Z,12.60
2023-02-02T19:03:55.333Z,16.27
2023-02-02T19:06:54.121Z,21.65
2023-02-02T19:09:33.847Z,21.55
2023-02-02T19:12:03.700Z,28.13
2023-02-02T19:14:42.498Z,32.42
2023-02-02T19:17:22.504Z,29.02
2023-02-02T19:19:53.248Z,33.47
2023-02-02T19:22:23.693Z,24.65
2023-02-02T19:24:53.042Z,20.85
2023-02-02T19:27:27.138Z,25.48
2023-02-02T19:30:05.962Z,17.48
2023-02-02T19:32:36.452Z,14.75
2023-02-02T19:35:50.705Z,11.77
2023-02-02T19:38:36.096Z,12.10
2023-02-02T19:41:07.610Z,15.10
2023-02-02T19:43:47.666Z,15.25
2023-02-02T19:46:22.772Z,11.25
2023-02-02T19:49:02.399Z,16.90
2023-02-02T19:51:59.565Z,13.13
2023-02-02T19:54:32.771Z,17.10
2023-02-02T19:57:02.901Z,14.02
2023-02-02T19:59:38.745Z,9.27
2023-02-02T20:02:39.575Z,13.57
2023-02-02T20:05:18.580Z,8.18
2023-02-02T20:08:08.249Z,13.93
2023-02-02T20:10:42.635Z,14.20
2023-02-02T20:13:20.285Z,15.98
2023-02-02T20:16:04.792Z,13.73
2023-02-02T20:18:41.664Z,10.93
2023-02-02T20:21:21.416Z,13.15
2023-02-02T20:23:51.817Z,12.95
2023-02-02T20:26:27.046Z,17.75
2023-02-02T20:28:58.743Z,15.60
2023-02-02T20:31:35.889Z,14.85
2023-02-02T20:34:17.592Z,11.05
2023-02-02T20:36:46.116Z,11.43
2023-02-02T20:39:30.426Z,15.10
2023-02-02T20:42:03.517Z,11.13
2023-02-02T20:44:36.150Z,12.32
2023-02-02T20:47:07.072Z,13.75
2023-02-02T20:49:36.298Z,13.35
2023-02-02T20:52:08.027Z,10.85
2023-02-02T20:54:39.576Z,17.38
2023-02-02T20:57:08.086Z,10.15
2023-02-02T20:59:36.911Z,15.18
2023-02-02T21:02:07.209Z,16.13
2023-02-02T21:04:35.915Z,18.70
2023-02-02T21:07:04.161Z,18.15
2023-02-02T21:09:32.596Z,14.77
2023-02-02T21:12:02.447Z,15.85
2023-02-02T21:14:30.790Z,13.32
2023-02-02T21:17:17.403Z,14.40
2023-02-02T21:19:46.146Z,14.60
2023-02-02T21:22:14.990Z,18.02
2023-02-02T21:24:43.378Z,15.48
2023-02-02T21:27:13.197Z,12.77
2023-02-02T21:29:43.727Z,13.82
2023-02-02T21:32:17.096Z,14.85
2023-02-02T21:34:45.431Z,18.75
2023-02-02T21:37:16.800Z,15.32
2023-02-02T21:39:48.708Z,12.20
2023-02-02T21:42:20.391Z,10.90
2023-02-02T21:44:54.322Z,17.05
2023-02-02T21:47:33.733Z,18.13
2023-02-02T21:50:15.868Z,15.75
2023-02-02T21:52:44.461Z,11.65
2023-02-02T21:55:35.566Z,17.60
2023-02-02T21:58:18.973Z,15.52
2023-02-02T22:00:47.814Z,17.42
2023-02-02T22:03:34.712Z,15.82
2023-02-02T22:06:26.651Z,22.40
2023-02-02T22:09:09.496Z,21.90
2023-02-02T22:11:47.792Z,15.73
2023-02-02T22:14:38.930Z,16.90
2023-02-02T22:17:21.821Z,16.17
2023-02-02T22:19:53.958Z,19.73
2023-02-02T22:22:25.853Z,15.52
2023-02-02T22:25:04.748Z,19.98
2023-02-02T22:27:43.128Z,13.13
2023-02-02T22:30:24.834Z,18.70
2023-02-02T22:32:53.649Z,15.25
2023-02-02T22:35:22.148Z,14.65
2023-02-02T22:37:54.479Z,14.93
2023-02-02T22:40:25.240Z,12.30
2023-02-02T22:42:55.893Z,14.43
2023-02-02T22:45:26.844Z,12.40
2023-02-02T22:47:55.298Z,13.68
2023-02-02T22:50:26.796Z,12.75
2023-02-02T22:52:55.379Z,17.35
2023-02-02T22:55:23.943Z,12.90
2023-02-02T22:57:52.293Z,13.68
2023-02-02T23:00:22.742Z,11.60
2023-02-02T23:02:53.063Z,13.45
2023-02-02T23:05:23.045Z,14.50
2023-02-02T23:07:51.956Z,13.70
2023-02-02T23:10:22.515Z,13.15
2023-02-02T23:12:53.630Z,15.27
2023-02-02T23:15:22.680Z,14.35
2023-02-02T23:17:52.509Z,20.90
2023-02-02T23:20:21.563Z,20.15
2023-02-02T23:22:50.243Z,14.43
2023-02-02T23:25:19.430Z,12.20
2023-02-02T23:27:47.994Z,17.08
2023-02-02T23:30:17.626Z,20.25
2023-02-02T23:32:46.102Z,14.35
2023-02-02T23:35:15.794Z,14.82
2023-02-02T23:37:44.117Z,16.38
2023-02-02T23:40:13.731Z,16.90
2023-02-02T23:42:42.192Z,15.77
2023-02-02T23:45:11.360Z,16.50
2023-02-02T23:47:40.118Z,16.45
2023-02-02T23:50:10.227Z,16.38
2023-02-02T23:52:40.267Z,21.08
2023-02-02T23:55:10.179Z,16.08
2023-02-02T23:57:39.533Z,13.13
